Weather at Sultan Mahmud Badaruddin II Airport

Public forecast

Using degrees Celsius for public forecast. Weather courtesy of forecast.io.

Current aviation weather report (METAR) for Sultan Mahmud Badaruddin II Airport

Retrieved 2022/06/27 23:00 UTC (9 minutes ago):

WIPP 272300Z 00000KT 4000 HZ FEW010 25/24 Q1009

Aviation forecast (TAF) for Sultan Mahmud Badaruddin II Airport

Retrieved 2022/06/27 18:57 UTC (4 hours ago):

TAF TAF WIPP 271700Z 2718/2818 12005KT 9999 SCT010 TEMPO 2721/2724 2000 BR